sensor_id;sensor_type;location;lat;lon;timestamp;P1;durP1;ratioP1;P2;durP2;ratioP2
10651;SDS011;5374;42.742;23.266;2023-03-23T00:00:14;36.70;;;27.43;;
10651;SDS011;5374;42.742;23.266;2023-03-23T00:03:02;38.23;;;29.03;;
10651;SDS011;5374;42.742;23.266;2023-03-23T00:05:50;38.60;;;28.57;;
10651;SDS011;5374;42.742;23.266;2023-03-23T00:08:38;32.27;;;25.03;;
10651;SDS011;5374;42.742;23.266;2023-03-23T00:11:31;30.73;;;23.90;;
10651;SDS011;5374;42.742;23.266;2023-03-23T00:14:19;32.77;;;23.53;;
10651;SDS011;5374;42.742;23.266;2023-03-23T00:17:08;28.80;;;22.20;;
10651;SDS011;5374;42.742;23.266;2023-03-23T00:19:59;30.77;;;21.53;;
10651;SDS011;5374;42.742;23.266;2023-03-23T00:22:50;25.73;;;20.30;;
10651;SDS011;5374;42.742;23.266;2023-03-23T00:25:37;24.07;;;18.60;;
10651;SDS011;5374;42.742;23.266;2023-03-23T00:28:27;25.17;;;19.00;;
10651;SDS011;5374;42.742;23.266;2023-03-23T00:31:15;23.30;;;19.00;;
10651;SDS011;5374;42.742;23.266;2023-03-23T00:34:03;25.57;;;20.03;;
10651;SDS011;5374;42.742;23.266;2023-03-23T00:36:51;29.13;;;21.40;;
10651;SDS011;5374;42.742;23.266;2023-03-23T00:39:43;31.60;;;23.10;;
10651;SDS011;5374;42.742;23.266;2023-03-23T00:42:31;31.47;;;23.47;;
10651;SDS011;5374;42.742;23.266;2023-03-23T00:45:24;30.07;;;23.10;;
10651;SDS011;5374;42.742;23.266;2023-03-23T00:48:11;34.43;;;26.70;;
10651;SDS011;5374;42.742;23.266;2023-03-23T00:51:00;37.63;;;29.03;;
10651;SDS011;5374;42.742;23.266;2023-03-23T00:53:51;37.23;;;28.47;;
10651;SDS011;5374;42.742;23.266;2023-03-23T00:56:38;36.27;;;28.37;;
10651;SDS011;5374;42.742;23.266;2023-03-23T00:59:25;37.80;;;28.60;;
10651;SDS011;5374;42.742;23.266;2023-03-23T01:02:14;33.93;;;26.27;;
10651;SDS011;5374;42.742;23.266;2023-03-23T01:05:02;33.13;;;26.40;;
10651;SDS011;5374;42.742;23.266;2023-03-23T01:07:49;36.33;;;27.43;;
10651;SDS011;5374;42.742;23.266;2023-03-23T01:10:36;35.77;;;29.10;;
10651;SDS011;5374;42.742;23.266;2023-03-23T01:13:24;37.87;;;28.80;;
10651;SDS011;5374;42.742;23.266;2023-03-23T01:16:11;35.37;;;27.93;;
10651;SDS011;5374;42.742;23.266;2023-03-23T01:19:00;36.00;;;26.27;;
10651;SDS011;5374;42.742;23.266;2023-03-23T01:21:47;34.97;;;25.90;;
10651;SDS011;5374;42.742;23.266;2023-03-23T01:24:34;33.90;;;27.10;;
10651;SDS011;5374;42.742;23.266;2023-03-23T01:27:21;30.63;;;25.90;;
10651;SDS011;5374;42.742;23.266;2023-03-23T01:30:10;35.20;;;26.17;;
10651;SDS011;5374;42.742;23.266;2023-03-23T01:32:58;37.53;;;26.53;;
10651;SDS011;5374;42.742;23.266;2023-03-23T01:35:47;35.80;;;26.63;;
10651;SDS011;5374;42.742;23.266;2023-03-23T01:38:34;34.53;;;26.03;;
10651;SDS011;5374;42.742;23.266;2023-03-23T01:41:22;35.83;;;26.97;;
10651;SDS011;5374;42.742;23.266;2023-03-23T01:47:29;35.37;;;25.73;;
10651;SDS011;5374;42.742;23.266;2023-03-23T01:50:17;31.53;;;24.77;;
10651;SDS011;5374;42.742;23.266;2023-03-23T01:53:07;32.10;;;25.27;;
10651;SDS011;5374;42.742;23.266;2023-03-23T01:55:57;32.33;;;25.60;;
10651;SDS011;5374;42.742;23.266;2023-03-23T01:58:46;37.53;;;25.70;;
10651;SDS011;5374;42.742;23.266;2023-03-23T02:01:34;33.57;;;25.70;;
10651;SDS011;5374;42.742;23.266;2023-03-23T02:04:23;35.47;;;25.70;;
10651;SDS011;5374;42.742;23.266;2023-03-23T02:07:11;34.10;;;25.67;;
10651;SDS011;5374;42.742;23.266;2023-03-23T02:10:00;35.20;;;25.80;;
10651;SDS011;5374;42.742;23.266;2023-03-23T02:12:48;38.43;;;27.43;;
10651;SDS011;5374;42.742;23.266;2023-03-23T02:15:40;50.40;;;37.30;;
10651;SDS011;5374;42.742;23.266;2023-03-23T02:18:36;46.67;;;34.20;;
10651;SDS011;5374;42.742;23.266;2023-03-23T02:24:51;36.73;;;28.43;;
10651;SDS011;5374;42.742;23.266;2023-03-23T02:28:00;41.33;;;29.13;;
10651;SDS011;5374;42.742;23.266;2023-03-23T02:31:15;39.47;;;30.17;;
10651;SDS011;5374;42.742;23.266;2023-03-23T02:34:17;37.63;;;29.00;;
10651;SDS011;5374;42.742;23.266;2023-03-23T02:37:08;34.93;;;27.53;;
10651;SDS011;5374;42.742;23.266;2023-03-23T02:40:00;33.37;;;24.17;;
10651;SDS011;5374;42.742;23.266;2023-03-23T02:42:54;28.43;;;22.23;;
10651;SDS011;5374;42.742;23.266;2023-03-23T02:45:44;30.87;;;22.73;;
10651;SDS011;5374;42.742;23.266;2023-03-23T02:48:32;31.27;;;22.37;;
10651;SDS011;5374;42.742;23.266;2023-03-23T02:51:21;28.10;;;21.87;;
10651;SDS011;5374;42.742;23.266;2023-03-23T02:54:10;27.40;;;21.67;;
10651;SDS011;5374;42.742;23.266;2023-03-23T02:56:59;27.87;;;22.23;;
10651;SDS011;5374;42.742;23.266;2023-03-23T02:59:46;28.43;;;21.07;;
10651;SDS011;5374;42.742;23.266;2023-03-23T03:02:34;36.43;;;25.80;;
10651;SDS011;5374;42.742;23.266;2023-03-23T03:05:26;34.07;;;24.57;;
10651;SDS011;5374;42.742;23.266;2023-03-23T03:08:24;33.63;;;24.97;;
10651;SDS011;5374;42.742;23.266;2023-03-23T03:11:17;51.17;;;36.00;;
10651;SDS011;5374;42.742;23.266;2023-03-23T03:14:08;31.07;;;22.97;;
10651;SDS011;5374;42.742;23.266;2023-03-23T03:17:03;32.27;;;23.37;;
10651;SDS011;5374;42.742;23.266;2023-03-23T03:19:57;25.60;;;19.03;;
10651;SDS011;5374;42.742;23.266;2023-03-23T03:22:55;28.77;;;19.10;;
10651;SDS011;5374;42.742;23.266;2023-03-23T03:25:47;23.67;;;18.27;;
10651;SDS011;5374;42.742;23.266;2023-03-23T03:28:38;23.97;;;18.40;;
10651;SDS011;5374;42.742;23.266;2023-03-23T03:31:28;26.97;;;19.13;;
10651;SDS011;5374;42.742;23.266;2023-03-23T03:34:20;22.00;;;18.03;;
10651;SDS011;5374;42.742;23.266;2023-03-23T03:37:10;29.03;;;18.63;;
10651;SDS011;5374;42.742;23.266;2023-03-23T03:39:58;26.33;;;20.27;;
10651;SDS011;5374;42.742;23.266;2023-03-23T03:42:47;27.37;;;20.37;;
10651;SDS011;5374;42.742;23.266;2023-03-23T03:45:34;28.03;;;20.13;;
10651;SDS011;5374;42.742;23.266;2023-03-23T03:48:21;26.73;;;20.03;;
10651;SDS011;5374;42.742;23.266;2023-03-23T03:51:08;24.80;;;18.37;;
10651;SDS011;5374;42.742;23.266;2023-03-23T03:53:56;26.27;;;18.23;;
10651;SDS011;5374;42.742;23.266;2023-03-23T03:56:43;21.30;;;16.90;;
10651;SDS011;5374;42.742;23.266;2023-03-23T03:59:32;22.53;;;17.20;;
10651;SDS011;5374;42.742;23.266;2023-03-23T04:02:20;24.43;;;17.73;;
10651;SDS011;5374;42.742;23.266;2023-03-23T04:05:08;26.97;;;20.63;;
10651;SDS011;5374;42.742;23.266;2023-03-23T04:07:55;25.53;;;19.17;;
10651;SDS011;5374;42.742;23.266;2023-03-23T04:10:46;27.37;;;18.43;;
10651;SDS011;5374;42.742;23.266;2023-03-23T04:13:34;50.27;;;33.17;;
10651;SDS011;5374;42.742;23.266;2023-03-23T04:16:23;61.83;;;39.90;;
10651;SDS011;5374;42.742;23.266;2023-03-23T04:19:11;34.97;;;24.83;;
10651;SDS011;5374;42.742;23.266;2023-03-23T04:21:59;36.97;;;25.27;;
10651;SDS011;5374;42.742;23.266;2023-03-23T04:24:46;48.00;;;30.63;;
10651;SDS011;5374;42.742;23.266;2023-03-23T04:27:34;41.03;;;30.17;;
10651;SDS011;5374;42.742;23.266;2023-03-23T04:30:22;38.53;;;28.97;;
10651;SDS011;5374;42.742;23.266;2023-03-23T04:33:11;36.17;;;26.93;;
10651;SDS011;5374;42.742;23.266;2023-03-23T04:36:00;40.03;;;29.10;;
10651;SDS011;5374;42.742;23.266;2023-03-23T04:38:48;32.83;;;24.93;;
10651;SDS011;5374;42.742;23.266;2023-03-23T04:41:40;31.07;;;22.00;;
10651;SDS011;5374;42.742;23.266;2023-03-23T04:44:27;29.50;;;19.83;;
10651;SDS011;5374;42.742;23.266;2023-03-23T04:47:14;27.07;;;19.43;;
10651;SDS011;5374;42.742;23.266;2023-03-23T04:50:04;26.83;;;20.37;;
10651;SDS011;5374;42.742;23.266;2023-03-23T04:52:52;27.80;;;20.77;;
10651;SDS011;5374;42.742;23.266;2023-03-23T04:55:42;29.33;;;20.53;;
10651;SDS011;5374;42.742;23.266;2023-03-23T04:58:29;30.60;;;21.40;;
10651;SDS011;5374;42.742;23.266;2023-03-23T05:01:19;35.30;;;20.17;;
10651;SDS011;5374;42.742;23.266;2023-03-23T05:04:06;27.83;;;20.27;;
10651;SDS011;5374;42.742;23.266;2023-03-23T05:06:55;28.93;;;20.27;;
10651;SDS011;5374;42.742;23.266;2023-03-23T05:09:46;30.10;;;21.47;;
10651;SDS011;5374;42.742;23.266;2023-03-23T05:12:34;29.03;;;20.77;;
10651;SDS011;5374;42.742;23.266;2023-03-23T05:15:21;24.53;;;20.07;;
10651;SDS011;5374;42.742;23.266;2023-03-23T05:18:08;27.67;;;20.97;;
10651;SDS011;5374;42.742;23.266;2023-03-23T05:20:58;27.03;;;21.47;;
10651;SDS011;5374;42.742;23.266;2023-03-23T05:23:48;27.33;;;21.07;;
10651;SDS011;5374;42.742;23.266;2023-03-23T05:26:40;25.47;;;20.67;;
10651;SDS011;5374;42.742;23.266;2023-03-23T05:29:27;31.33;;;22.03;;
10651;SDS011;5374;42.742;23.266;2023-03-23T05:32:15;51.87;;;35.70;;
10651;SDS011;5374;42.742;23.266;2023-03-23T05:35:04;51.07;;;38.97;;
10651;SDS011;5374;42.742;23.266;2023-03-23T05:37:52;50.13;;;38.63;;
10651;SDS011;5374;42.742;23.266;2023-03-23T05:40:42;44.17;;;34.93;;
10651;SDS011;5374;42.742;23.266;2023-03-23T05:43:29;43.70;;;31.10;;
10651;SDS011;5374;42.742;23.266;2023-03-23T05:46:17;46.37;;;28.67;;
10651;SDS011;5374;42.742;23.266;2023-03-23T05:49:04;48.27;;;28.17;;
10651;SDS011;5374;42.742;23.266;2023-03-23T05:51:52;45.70;;;27.63;;
10651;SDS011;5374;42.742;23.266;2023-03-23T05:54:39;39.47;;;25.97;;
10651;SDS011;5374;42.742;23.266;2023-03-23T05:57:28;42.77;;;25.60;;
10651;SDS011;5374;42.742;23.266;2023-03-23T06:00:16;42.77;;;30.37;;
10651;SDS011;5374;42.742;23.266;2023-03-23T06:03:08;46.07;;;31.47;;
10651;SDS011;5374;42.742;23.266;2023-03-23T06:05:55;43.50;;;29.60;;
10651;SDS011;5374;42.742;23.266;2023-03-23T06:08:43;37.63;;;28.00;;
10651;SDS011;5374;42.742;23.266;2023-03-23T06:11:30;36.50;;;27.63;;
10651;SDS011;5374;42.742;23.266;2023-03-23T06:14:20;41.43;;;31.43;;
10651;SDS011;5374;42.742;23.266;2023-03-23T06:17:07;44.43;;;32.80;;
10651;SDS011;5374;42.742;23.266;2023-03-23T06:19:54;34.30;;;27.30;;
10651;SDS011;5374;42.742;23.266;2023-03-23T06:22:42;48.17;;;35.93;;
10651;SDS011;5374;42.742;23.266;2023-03-23T06:25:30;36.87;;;27.53;;
10651;SDS011;5374;42.742;23.266;2023-03-23T06:28:18;44.03;;;30.50;;
10651;SDS011;5374;42.742;23.266;2023-03-23T06:31:07;34.73;;;28.70;;
10651;SDS011;5374;42.742;23.266;2023-03-23T06:33:56;23.57;;;21.07;;
10651;SDS011;5374;42.742;23.266;2023-03-23T06:36:43;27.23;;;23.33;;
10651;SDS011;5374;42.742;23.266;2023-03-23T06:39:30;24.07;;;21.57;;
10651;SDS011;5374;42.742;23.266;2023-03-23T06:42:18;28.77;;;23.50;;
10651;SDS011;5374;42.742;23.266;2023-03-23T06:45:05;25.37;;;22.13;;
10651;SDS011;5374;42.742;23.266;2023-03-23T06:47:54;22.33;;;19.93;;
10651;SDS011;5374;42.742;23.266;2023-03-23T06:50:42;25.00;;;22.17;;
10651;SDS011;5374;42.742;23.266;2023-03-23T06:53:29;25.77;;;23.17;;
10651;SDS011;5374;42.742;23.266;2023-03-23T06:56:17;20.77;;;18.63;;
10651;SDS011;5374;42.742;23.266;2023-03-23T06:59:04;21.20;;;19.10;;
10651;SDS011;5374;42.742;23.266;2023-03-23T07:01:51;22.13;;;19.77;;
10651;SDS011;5374;42.742;23.266;2023-03-23T07:04:40;37.10;;;29.40;;
10651;SDS011;5374;42.742;23.266;2023-03-23T07:07:27;18.63;;;16.67;;
10651;SDS011;5374;42.742;23.266;2023-03-23T07:10:14;18.83;;;16.93;;
10651;SDS011;5374;42.742;23.266;2023-03-23T07:13:02;18.93;;;17.03;;
10651;SDS011;5374;42.742;23.266;2023-03-23T07:15:49;16.77;;;15.07;;
10651;SDS011;5374;42.742;23.266;2023-03-23T07:18:36;17.70;;;16.00;;
10651;SDS011;5374;42.742;23.266;2023-03-23T07:21:25;17.17;;;15.50;;
10651;SDS011;5374;42.742;23.266;2023-03-23T07:24:12;17.50;;;15.70;;
10651;SDS011;5374;42.742;23.266;2023-03-23T07:27:00;19.03;;;16.93;;
10651;SDS011;5374;42.742;23.266;2023-03-23T07:29:48;18.37;;;15.50;;
10651;SDS011;5374;42.742;23.266;2023-03-23T07:32:35;18.77;;;16.27;;
10651;SDS011;5374;42.742;23.266;2023-03-23T07:35:22;27.63;;;23.00;;
10651;SDS011;5374;42.742;23.266;2023-03-23T07:38:11;30.57;;;23.77;;
10651;SDS011;5374;42.742;23.266;2023-03-23T07:40:59;18.60;;;16.60;;
10651;SDS011;5374;42.742;23.266;2023-03-23T07:43:46;19.03;;;16.30;;
10651;SDS011;5374;42.742;23.266;2023-03-23T07:46:33;21.40;;;16.67;;
10651;SDS011;5374;42.742;23.266;2023-03-23T07:49:21;20.43;;;17.77;;
10651;SDS011;5374;42.742;23.266;2023-03-23T07:52:08;30.57;;;24.13;;
10651;SDS011;5374;42.742;23.266;2023-03-23T07:54:57;24.03;;;18.53;;
10651;SDS011;5374;42.742;23.266;2023-03-23T07:57:47;37.60;;;29.57;;
10651;SDS011;5374;42.742;23.266;2023-03-23T08:00:35;20.30;;;16.83;;
10651;SDS011;5374;42.742;23.266;2023-03-23T08:03:22;17.30;;;14.83;;
10651;SDS011;5374;42.742;23.266;2023-03-23T08:06:09;19.70;;;16.23;;
10651;SDS011;5374;42.742;23.266;2023-03-23T08:08:56;20.43;;;17.33;;
10651;SDS011;5374;42.742;23.266;2023-03-23T08:11:46;18.60;;;16.67;;
10651;SDS011;5374;42.742;23.266;2023-03-23T08:14:33;18.43;;;16.23;;
10651;SDS011;5374;42.742;23.266;2023-03-23T08:17:21;17.63;;;13.90;;
10651;SDS011;5374;42.742;23.266;2023-03-23T08:20:09;16.27;;;14.57;;
10651;SDS011;5374;42.742;23.266;2023-03-23T08:22:58;16.87;;;15.07;;
10651;SDS011;5374;42.742;23.266;2023-03-23T08:25:47;19.70;;;15.60;;
10651;SDS011;5374;42.742;23.266;2023-03-23T08:28:36;16.77;;;14.90;;
10651;SDS011;5374;42.742;23.266;2023-03-23T08:31:24;20.87;;;15.80;;
10651;SDS011;5374;42.742;23.266;2023-03-23T08:34:12;17.77;;;15.30;;
10651;SDS011;5374;42.742;23.266;2023-03-23T08:37:01;21.27;;;16.83;;
10651;SDS011;5374;42.742;23.266;2023-03-23T08:39:50;18.50;;;15.67;;
10651;SDS011;5374;42.742;23.266;2023-03-23T08:42:38;16.50;;;14.07;;
10651;SDS011;5374;42.742;23.266;2023-03-23T08:45:29;15.97;;;12.93;;
10651;SDS011;5374;42.742;23.266;2023-03-23T08:48:16;14.90;;;13.40;;
10651;SDS011;5374;42.742;23.266;2023-03-23T08:51:06;17.27;;;13.70;;
10651;SDS011;5374;42.742;23.266;2023-03-23T08:53:54;11.03;;;9.60;;
10651;SDS011;5374;42.742;23.266;2023-03-23T08:56:41;14.70;;;12.20;;
10651;SDS011;5374;42.742;23.266;2023-03-23T08:59:28;17.40;;;12.87;;
10651;SDS011;5374;42.742;23.266;2023-03-23T09:02:17;14.40;;;12.13;;
10651;SDS011;5374;42.742;23.266;2023-03-23T09:05:05;13.67;;;11.50;;
10651;SDS011;5374;42.742;23.266;2023-03-23T09:07:53;13.63;;;9.80;;
10651;SDS011;5374;42.742;23.266;2023-03-23T09:10:44;12.67;;;9.67;;
10651;SDS011;5374;42.742;23.266;2023-03-23T09:13:31;14.40;;;10.57;;
10651;SDS011;5374;42.742;23.266;2023-03-23T09:16:18;12.33;;;11.03;;
10651;SDS011;5374;42.742;23.266;2023-03-23T09:19:10;14.30;;;11.50;;
10651;SDS011;5374;42.742;23.266;2023-03-23T09:22:01;12.97;;;10.53;;
10651;SDS011;5374;42.742;23.266;2023-03-23T09:24:49;13.00;;;10.23;;
10651;SDS011;5374;42.742;23.266;2023-03-23T09:27:37;14.33;;;10.77;;
10651;SDS011;5374;42.742;23.266;2023-03-23T09:30:25;11.03;;;10.00;;
10651;SDS011;5374;42.742;23.266;2023-03-23T09:33:14;12.57;;;10.57;;
10651;SDS011;5374;42.742;23.266;2023-03-23T09:36:03;16.60;;;10.87;;
10651;SDS011;5374;42.742;23.266;2023-03-23T09:38:53;9.87;;;8.47;;
10651;SDS011;5374;42.742;23.266;2023-03-23T09:41:48;10.07;;;7.97;;
10651;SDS011;5374;42.742;23.266;2023-03-23T09:45:00;8.70;;;7.70;;
10651;SDS011;5374;42.742;23.266;2023-03-23T09:48:03;7.67;;;6.97;;
10651;SDS011;5374;42.742;23.266;2023-03-23T09:51:11;10.10;;;7.63;;
10651;SDS011;5374;42.742;23.266;2023-03-23T09:54:09;9.93;;;7.17;;
10651;SDS011;5374;42.742;23.266;2023-03-23T09:57:01;10.20;;;7.67;;
10651;SDS011;5374;42.742;23.266;2023-03-23T09:59:52;9.70;;;8.10;;
10651;SDS011;5374;42.742;23.266;2023-03-23T10:02:45;8.93;;;7.67;;
10651;SDS011;5374;42.742;23.266;2023-03-23T10:05:38;8.70;;;7.27;;
10651;SDS011;5374;42.742;23.266;2023-03-23T10:08:30;105.60;;;73.83;;
10651;SDS011;5374;42.742;23.266;2023-03-23T10:11:22;15.50;;;13.87;;
10651;SDS011;5374;42.742;23.266;2023-03-23T10:14:31;9.17;;;7.67;;
10651;SDS011;5374;42.742;23.266;2023-03-23T10:17:32;13.53;;;8.60;;
10651;SDS011;5374;42.742;23.266;2023-03-23T10:20:39;9.67;;;8.10;;
10651;SDS011;5374;42.742;23.266;2023-03-23T10:23:35;10.50;;;7.90;;
10651;SDS011;5374;42.742;23.266;2023-03-23T10:26:39;9.07;;;8.17;;
10651;SDS011;5374;42.742;23.266;2023-03-23T10:29:32;9.87;;;8.40;;
10651;SDS011;5374;42.742;23.266;2023-03-23T10:32:36;7.50;;;6.73;;
10651;SDS011;5374;42.742;23.266;2023-03-23T10:35:28;10.67;;;7.40;;
10651;SDS011;5374;42.742;23.266;2023-03-23T10:38:22;8.90;;;7.70;;
10651;SDS011;5374;42.742;23.266;2023-03-23T10:41:17;8.83;;;7.17;;
10651;SDS011;5374;42.742;23.266;2023-03-23T10:44:09;8.20;;;7.40;;
10651;SDS011;5374;42.742;23.266;2023-03-23T10:46:58;8.30;;;7.50;;
10651;SDS011;5374;42.742;23.266;2023-03-23T10:49:47;10.13;;;7.60;;
10651;SDS011;5374;42.742;23.266;2023-03-23T10:52:38;7.97;;;7.03;;
10651;SDS011;5374;42.742;23.266;2023-03-23T10:55:35;8.60;;;7.23;;
10651;SDS011;5374;42.742;23.266;2023-03-23T10:58:26;7.90;;;7.10;;
10651;SDS011;5374;42.742;23.266;2023-03-23T11:01:17;8.23;;;6.73;;
10651;SDS011;5374;42.742;23.266;2023-03-23T11:04:10;8.17;;;6.77;;
10651;SDS011;5374;42.742;23.266;2023-03-23T11:07:00;7.87;;;7.07;;
10651;SDS011;5374;42.742;23.266;2023-03-23T11:09:51;11.47;;;8.10;;
10651;SDS011;5374;42.742;23.266;2023-03-23T11:12:43;8.07;;;7.27;;
10651;SDS011;5374;42.742;23.266;2023-03-23T11:15:33;10.83;;;7.60;;
10651;SDS011;5374;42.742;23.266;2023-03-23T11:18:23;8.47;;;7.40;;
10651;SDS011;5374;42.742;23.266;2023-03-23T11:21:13;7.93;;;7.10;;
10651;SDS011;5374;42.742;23.266;2023-03-23T11:24:02;9.27;;;7.20;;
10651;SDS011;5374;42.742;23.266;2023-03-23T11:26:49;8.57;;;7.67;;
10651;SDS011;5374;42.742;23.266;2023-03-23T11:29:43;9.63;;;7.67;;
10651;SDS011;5374;42.742;23.266;2023-03-23T11:32:34;9.53;;;7.57;;
10651;SDS011;5374;42.742;23.266;2023-03-23T11:35:25;8.57;;;6.87;;
10651;SDS011;5374;42.742;23.266;2023-03-23T11:38:17;7.70;;;6.73;;
10651;SDS011;5374;42.742;23.266;2023-03-23T11:41:08;7.77;;;6.83;;
10651;SDS011;5374;42.742;23.266;2023-03-23T11:44:01;7.93;;;6.93;;
10651;SDS011;5374;42.742;23.266;2023-03-23T11:46:58;8.07;;;7.27;;
10651;SDS011;5374;42.742;23.266;2023-03-23T11:49:52;7.93;;;6.83;;
10651;SDS011;5374;42.742;23.266;2023-03-23T11:52:47;8.27;;;6.80;;
10651;SDS011;5374;42.742;23.266;2023-03-23T11:55:50;9.80;;;7.33;;
10651;SDS011;5374;42.742;23.266;2023-03-23T11:58:42;12.43;;;6.80;;
10651;SDS011;5374;42.742;23.266;2023-03-23T12:01:37;7.80;;;6.20;;
10651;SDS011;5374;42.742;23.266;2023-03-23T12:04:35;8.40;;;7.10;;
10651;SDS011;5374;42.742;23.266;2023-03-23T12:07:33;8.77;;;6.87;;
10651;SDS011;5374;42.742;23.266;2023-03-23T12:10:29;7.73;;;6.70;;
10651;SDS011;5374;42.742;23.266;2023-03-23T12:13:26;8.63;;;6.90;;
10651;SDS011;5374;42.742;23.266;2023-03-23T12:16:41;7.87;;;6.20;;
10651;SDS011;5374;42.742;23.266;2023-03-23T12:19:41;8.33;;;6.60;;
10651;SDS011;5374;42.742;23.266;2023-03-23T12:22:37;8.17;;;7.37;;
10651;SDS011;5374;42.742;23.266;2023-03-23T12:25:50;7.40;;;6.60;;
10651;SDS011;5374;42.742;23.266;2023-03-23T12:28:52;7.53;;;6.83;;
10651;SDS011;5374;42.742;23.266;2023-03-23T12:32:04;7.77;;;6.50;;
10651;SDS011;5374;42.742;23.266;2023-03-23T12:35:22;7.33;;;6.23;;
10651;SDS011;5374;42.742;23.266;2023-03-23T12:38:39;9.37;;;6.40;;
10651;SDS011;5374;42.742;23.266;2023-03-23T12:41:40;8.17;;;6.33;;
10651;SDS011;5374;42.742;23.266;2023-03-23T12:44:34;7.23;;;6.37;;
10651;SDS011;5374;42.742;23.266;2023-03-23T12:47:28;6.77;;;6.07;;
10651;SDS011;5374;42.742;23.266;2023-03-23T12:50:24;7.13;;;6.17;;
10651;SDS011;5374;42.742;23.266;2023-03-23T12:53:20;6.70;;;5.90;;
10651;SDS011;5374;42.742;23.266;2023-03-23T12:56:14;7.20;;;5.50;;
10651;SDS011;5374;42.742;23.266;2023-03-23T12:59:08;6.30;;;5.70;;
10651;SDS011;5374;42.742;23.266;2023-03-23T13:02:05;7.57;;;6.00;;
10651;SDS011;5374;42.742;23.266;2023-03-23T13:05:03;8.27;;;6.10;;
10651;SDS011;5374;42.742;23.266;2023-03-23T13:07:56;5.90;;;5.30;;
10651;SDS011;5374;42.742;23.266;2023-03-23T13:10:48;8.70;;;5.30;;
10651;SDS011;5374;42.742;23.266;2023-03-23T13:13:45;6.53;;;5.80;;
10651;SDS011;5374;42.742;23.266;2023-03-23T13:16:38;6.83;;;6.13;;
10651;SDS011;5374;42.742;23.266;2023-03-23T13:19:38;6.87;;;5.60;;
10651;SDS011;5374;42.742;23.266;2023-03-23T13:22:37;8.27;;;5.70;;
10651;SDS011;5374;42.742;23.266;2023-03-23T13:25:39;6.87;;;5.50;;
10651;SDS011;5374;42.742;23.266;2023-03-23T13:28:58;5.73;;;5.10;;
10651;SDS011;5374;42.742;23.266;2023-03-23T13:31:49;5.77;;;5.17;;
10651;SDS011;5374;42.742;23.266;2023-03-23T13:34:39;5.90;;;5.00;;
10651;SDS011;5374;42.742;23.266;2023-03-23T13:37:28;6.00;;;5.40;;
10651;SDS011;5374;42.742;23.266;2023-03-23T13:40:20;6.27;;;5.37;;
10651;SDS011;5374;42.742;23.266;2023-03-23T13:43:13;5.90;;;5.30;;
10651;SDS011;5374;42.742;23.266;2023-03-23T13:46:25;5.90;;;5.30;;
10651;SDS011;5374;42.742;23.266;2023-03-23T13:49:17;5.77;;;5.10;;
10651;SDS011;5374;42.742;23.266;2023-03-23T13:52:15;6.60;;;5.87;;
10651;SDS011;5374;42.742;23.266;2023-03-23T13:55:12;5.63;;;5.17;;
10651;SDS011;5374;42.742;23.266;2023-03-23T13:58:12;6.57;;;5.43;;
10651;SDS011;5374;42.742;23.266;2023-03-23T14:01:12;7.47;;;5.80;;
10651;SDS011;5374;42.742;23.266;2023-03-23T14:04:05;11.13;;;6.00;;
10651;SDS011;5374;42.742;23.266;2023-03-23T14:06:57;6.10;;;5.50;;
10651;SDS011;5374;42.742;23.266;2023-03-23T14:10:04;6.03;;;5.40;;
10651;SDS011;5374;42.742;23.266;2023-03-23T14:12:54;5.70;;;5.20;;
10651;SDS011;5374;42.742;23.266;2023-03-23T14:15:43;7.17;;;5.60;;
10651;SDS011;5374;42.742;23.266;2023-03-23T14:18:42;5.93;;;5.00;;
10651;SDS011;5374;42.742;23.266;2023-03-23T14:21:41;5.23;;;4.73;;
10651;SDS011;5374;42.742;23.266;2023-03-23T14:24:39;6.27;;;5.30;;
10651;SDS011;5374;42.742;23.266;2023-03-23T14:27:27;6.43;;;5.80;;
10651;SDS011;5374;42.742;23.266;2023-03-23T14:30:16;6.17;;;5.50;;
10651;SDS011;5374;42.742;23.266;2023-03-23T14:33:07;8.43;;;6.27;;
10651;SDS011;5374;42.742;23.266;2023-03-23T14:36:00;6.60;;;5.63;;
10651;SDS011;5374;42.742;23.266;2023-03-23T14:38:54;6.27;;;5.67;;
10651;SDS011;5374;42.742;23.266;2023-03-23T14:41:48;6.10;;;5.50;;
10651;SDS011;5374;42.742;23.266;2023-03-23T14:44:39;7.57;;;5.90;;
10651;SDS011;5374;42.742;23.266;2023-03-23T14:47:30;6.63;;;6.03;;
10651;SDS011;5374;42.742;23.266;2023-03-23T14:50:23;7.13;;;6.13;;
10651;SDS011;5374;42.742;23.266;2023-03-23T14:53:16;8.70;;;6.53;;
10651;SDS011;5374;42.742;23.266;2023-03-23T14:56:11;8.83;;;7.93;;
10651;SDS011;5374;42.742;23.266;2023-03-23T14:59:02;8.93;;;7.87;;
10651;SDS011;5374;42.742;23.266;2023-03-23T15:01:54;10.77;;;8.50;;
10651;SDS011;5374;42.742;23.266;2023-03-23T15:04:42;10.97;;;6.40;;
10651;SDS011;5374;42.742;23.266;2023-03-23T15:07:33;7.37;;;6.23;;
10651;SDS011;5374;42.742;23.266;2023-03-23T15:10:23;9.20;;;6.33;;
10651;SDS011;5374;42.742;23.266;2023-03-23T15:13:15;7.80;;;6.40;;
10651;SDS011;5374;42.742;23.266;2023-03-23T15:16:04;6.20;;;5.60;;
10651;SDS011;5374;42.742;23.266;2023-03-23T15:18:55;10.17;;;5.90;;
10651;SDS011;5374;42.742;23.266;2023-03-23T15:21:50;17.33;;;12.87;;
10651;SDS011;5374;42.742;23.266;2023-03-23T15:24:40;8.90;;;7.60;;
10651;SDS011;5374;42.742;23.266;2023-03-23T15:27:29;13.43;;;11.23;;
10651;SDS011;5374;42.742;23.266;2023-03-23T15:30:31;11.50;;;6.17;;
10651;SDS011;5374;42.742;23.266;2023-03-23T15:33:21;6.90;;;5.67;;
10651;SDS011;5374;42.742;23.266;2023-03-23T15:36:14;11.03;;;6.10;;
10651;SDS011;5374;42.742;23.266;2023-03-23T15:39:03;9.47;;;6.57;;
10651;SDS011;5374;42.742;23.266;2023-03-23T15:41:57;10.43;;;6.60;;
10651;SDS011;5374;42.742;23.266;2023-03-23T15:44:54;8.30;;;6.50;;
10651;SDS011;5374;42.742;23.266;2023-03-23T15:47:46;8.13;;;6.87;;
10651;SDS011;5374;42.742;23.266;2023-03-23T15:50:35;7.33;;;6.63;;
10651;SDS011;5374;42.742;23.266;2023-03-23T15:53:26;7.33;;;6.63;;
10651;SDS011;5374;42.742;23.266;2023-03-23T15:56:17;9.80;;;6.43;;
10651;SDS011;5374;42.742;23.266;2023-03-23T15:59:07;9.30;;;6.53;;
10651;SDS011;5374;42.742;23.266;2023-03-23T16:01:55;9.47;;;6.30;;
10651;SDS011;5374;42.742;23.266;2023-03-23T16:04:46;7.27;;;6.57;;
10651;SDS011;5374;42.742;23.266;2023-03-23T16:07:35;9.17;;;7.60;;
10651;SDS011;5374;42.742;23.266;2023-03-23T16:10:25;10.33;;;8.87;;
10651;SDS011;5374;42.742;23.266;2023-03-23T16:13:14;8.67;;;6.50;;
10651;SDS011;5374;42.742;23.266;2023-03-23T16:16:03;8.63;;;7.50;;
10651;SDS011;5374;42.742;23.266;2023-03-23T16:18:53;9.93;;;6.57;;
10651;SDS011;5374;42.742;23.266;2023-03-23T16:21:42;9.03;;;7.93;;
10651;SDS011;5374;42.742;23.266;2023-03-23T16:24:30;17.13;;;9.27;;
10651;SDS011;5374;42.742;23.266;2023-03-23T16:27:18;8.77;;;6.87;;
10651;SDS011;5374;42.742;23.266;2023-03-23T16:30:11;8.20;;;6.23;;
10651;SDS011;5374;42.742;23.266;2023-03-23T16:33:01;13.83;;;8.30;;
10651;SDS011;5374;42.742;23.266;2023-03-23T16:35:49;7.70;;;6.77;;
10651;SDS011;5374;42.742;23.266;2023-03-23T16:38:38;13.17;;;8.60;;
10651;SDS011;5374;42.742;23.266;2023-03-23T16:41:26;11.90;;;7.57;;
10651;SDS011;5374;42.742;23.266;2023-03-23T16:44:13;9.27;;;6.80;;
10651;SDS011;5374;42.742;23.266;2023-03-23T16:47:01;9.60;;;7.73;;
10651;SDS011;5374;42.742;23.266;2023-03-23T16:49:48;9.00;;;7.40;;
10651;SDS011;5374;42.742;23.266;2023-03-23T16:52:36;10.03;;;7.20;;
10651;SDS011;5374;42.742;23.266;2023-03-23T16:55:25;10.53;;;7.93;;
10651;SDS011;5374;42.742;23.266;2023-03-23T16:58:13;7.90;;;7.03;;